Accueil
METAR-TAF:

METAR-TAF

Aéroports :

Aéroport de Paris-Charles-de-Gaulle

Paris-Charles De Gaulle, France

latitude: 49-01N, longitude: 002-32E, altitude: 118 m

Observation

Le bulletin a été fait il y a 22 minutes, à 10:00 UTC
Vent 12 kt de est/nord-est
Température 5°C
Humidité 65%
Pression 1023 hPa
Visibilité 10 km ou plus
pas de nuages en-dessous de 1500 mètres et pas de cumulonimbus.

METAR: LFPG 181000Z 07012KT CAVOK 05/M01 Q1023 NOSIG

Heure: 11:22 (10:22 UTC)

Prévision

Le bulletin a été fait il y a 5 heures et 22 minutes, à 05:00 UTC
Prévision valable du 18 à 06 UTC au 19 à 12 UTC
Vent 10 kt de est/nord-est
Visibilité 10 km ou plus
pas de nuages en-dessous de 1500 mètres et pas de cumulonimbus.

TAF: LFPG 180500Z 1806/1912 06010KT CAVOK TX08/1814Z TNM01/1906Z

Observations et prévisions météorologiques de plus de 4000 aéroports (messages METAR et TAF).

Les stations disponibles sont représentées par des disques jaunes et rouges sur la carte.

Passer la souris dessus pour voir le nom de la station.

Cliquer dessus pour voir les observations et prévisions météorologiques.

Pour changer de carte: cliquez sur les boutons verts avec une croix noire pour zoomer, sur le bouton vert avec un tiret pour effectuer un zoom arrière, ou sur les flèches vertes pour les cartes adjacentes.


METAR-TAF: